Time;durP1;ratioP1;P1;durP2;ratioP2;P2;SDS_P1;SDS_P2;PMS_P1;PMS_P2;Temp;Humidity;BMP_temperature;BMP_pressure;BME280_temperature;BME280_humidity;BME280_pressure;Samples;Min_cycle;Max_cycle;Signal;HPM_P1;HPM_P2
2023/05/01 04:39:47;;;;;;;3.00;2.10;;;;;;;6.66;96.66;99890.83;107784;1279;22937;-54
2023/05/01 04:42:16;;;;;;;4.90;2.20;;;;;;;6.70;96.76;99892.60;109293;1273;22356;-55
2023/05/01 04:44:44;;;;;;;3.30;2.10;;;;;;;6.77;96.66;99890.41;109838;1275;23305;-55
2023/05/01 04:47:12;;;;;;;3.90;2.20;;;;;;;6.84;96.07;99893.27;109727;1274;22997;-55
2023/05/01 04:49:39;;;;;;;5.00;2.20;;;;;;;6.93;96.37;99893.85;109321;1275;22445;-55
2023/05/01 04:52:06;;;;;;;4.80;2.40;;;;;;;7.02;96.31;99891.67;109924;1279;22686;-56
2023/05/01 04:54:47;;;;;;;4.60;2.30;;;;;;;7.14;96.51;99896.96;109753;1279;23614;-56
2023/05/01 04:57:15;;;;;;;3.40;2.50;;;;;;;7.25;95.11;99896.00;109487;1275;22373;-55
2023/05/01 04:59:42;;;;;;;5.10;2.20;;;;;;;7.35;94.16;99893.99;109716;1279;22378;-46
2023/05/01 05:02:09;;;;;;;4.20;1.90;;;;;;;7.44;94.21;99899.08;109892;1275;22478;-46
2023/05/01 05:04:36;;;;;;;5.00;2.20;;;;;;;7.56;93.78;99905.39;109911;1276;22412;-47
2023/05/01 05:07:03;;;;;;;5.40;2.60;;;;;;;7.65;92.50;99907.19;109392;1273;22878;-56
2023/05/01 05:09:50;;;;;;;4.60;2.30;;;;;;;7.76;92.22;99909.51;109822;1273;22805;-46
2023/05/01 05:12:18;;;;;;;2.90;2.00;;;;;;;7.87;92.33;99910.25;109149;1273;22291;-54
2023/05/01 05:14:46;;;;;;;4.90;2.00;;;;;;;8.00;91.88;99908.57;109628;1273;23025;-55
2023/05/01 05:17:14;;;;;;;4.20;2.30;;;;;;;8.14;91.30;99905.52;109595;1275;22971;-55
2023/05/01 05:19:41;;;;;;;4.70;2.10;;;;;;;8.28;89.54;99912.33;109588;1274;22182;-57
2023/05/01 05:22:11;;;;;;;6.50;2.30;;;;;;;8.38;87.87;99912.56;109364;1276;22944;-46
2023/05/01 05:25:02;;;;;;;4.60;2.20;;;;;;;8.47;87.36;99913.80;108741;1273;998852;-46
2023/05/01 05:27:36;;;;;;;3.70;2.60;;;;;;;8.56;87.96;99917.48;108915;1279;22507;-46
2023/05/01 05:30:05;;;;;;;6.10;2.30;;;;;;;8.67;87.34;99915.40;109062;1273;22479;-55
2023/05/01 05:32:52;;;;;;;5.70;2.40;;;;;;;8.75;86.33;99919.77;109330;1276;22294;-47
2023/05/01 05:36:01;;;;;;;2.80;1.90;;;;;;;8.84;86.38;99923.43;108796;1273;22498;-55
2023/05/01 05:39:03;;;;;;;4.30;2.10;;;;;;;8.97;86.27;99930.05;109066;1273;22533;-45
2023/05/01 05:42:13;;;;;;;4.60;2.20;;;;;;;9.06;84.90;99932.31;109526;1257;23014;-46
2023/05/01 05:44:52;;;;;;;2.40;2.00;;;;;;;9.16;85.05;99935.29;109139;1276;22469;-55
2023/05/01 05:48:39;;;;;;;3.50;1.80;;;;;;;9.27;83.57;99935.98;108531;1274;23100;-45
2023/05/01 05:51:37;;;;;;;2.20;1.70;;;;;;;9.40;83.02;99937.88;109699;1274;22345;-55
2023/05/01 05:54:04;;;;;;;13.70;2.00;;;;;;;9.48;82.19;99942.58;108682;1273;23839;-55
2023/05/01 05:56:33;;;;;;;7.30;1.80;;;;;;;9.58;82.65;99939.25;108730;1276;23103;-56
2023/05/01 05:59:02;;;;;;;5.50;2.30;;;;;;;9.67;80.52;99946.72;108652;1275;22570;-55
2023/05/01 06:01:32;;;;;;;3.50;1.90;;;;;;;9.74;78.13;99949.66;109306;1276;22362;-45
2023/05/01 06:03:59;;;;;;;3.30;1.90;;;;;;;9.79;77.58;99954.19;108697;1281;22527;-45
2023/05/01 06:06:27;;;;;;;5.30;1.60;;;;;;;9.82;76.70;99954.71;108944;1273;22463;-46
2023/05/01 06:08:55;;;;;;;2.80;1.50;;;;;;;9.84;75.99;99954.88;109338;1276;22030;-45
2023/05/01 06:11:23;;;;;;;2.10;1.80;;;;;;;9.88;75.85;99959.92;109337;1278;23659;-46
2023/05/01 06:13:50;;;;;;;4.20;1.80;;;;;;;9.94;76.61;99969.48;108961;1280;22492;-47
2023/05/01 06:16:25;;;;;;;5.30;2.30;;;;;;;10.02;76.46;99970.86;108193;1273;23216;-55
2023/05/01 06:18:53;;;;;;;7.10;2.00;;;;;;;10.11;76.63;99970.82;109111;1273;22265;-55
2023/05/01 06:21:26;;;;;;;4.80;1.70;;;;;;;10.23;77.25;99972.72;108581;1273;22935;-60
2023/05/01 06:24:18;;;;;;;3.40;2.50;;;;;;;10.40;76.99;99973.89;108136;1277;24220;-46
2023/05/01 06:31:35;;;;;;;2.60;1.70;;;;;;;10.80;74.91;99980.48;108950;1273;22395;-46
2023/05/01 06:34:49;;;;;;;;;;;;;;;10.95;72.90;99978.99;108840;1273;22524;-46
2023/05/01 06:38:04;;;;;;;4.90;1.70;;;;;;;11.10;72.29;99982.55;108940;1277;22416;-56
2023/05/01 06:41:01;;;;;;;2.50;1.60;;;;;;;11.24;72.38;99988.04;108956;1276;23442;-56
2023/05/01 06:43:52;;;;;;;2.10;1.40;;;;;;;11.41;71.88;99988.60;109334;1272;22521;-56
2023/05/01 06:46:20;;;;;;;2.00;1.30;;;;;;;11.54;71.39;99987.27;108562;1275;22663;-56
2023/05/01 06:49:11;;;;;;;2.10;1.20;;;;;;;11.66;69.61;99988.55;108772;1273;22404;-46
2023/05/01 06:51:51;;;;;;;4.10;1.60;;;;;;;11.78;69.17;99988.80;109090;1273;23337;-47
2023/05/01 06:54:19;;;;;;;3.20;1.30;;;;;;;11.90;70.09;99989.76;107965;1274;22519;-58
2023/05/01 06:56:47;;;;;;;3.80;1.40;;;;;;;12.06;70.16;99995.52;109182;1273;22375;-55
2023/05/01 06:59:15;;;;;;;7.90;2.10;;;;;;;12.22;69.65;99997.80;109166;1272;23464;-55
2023/05/01 07:01:45;;;;;;;4.00;1.70;;;;;;;12.38;67.08;100002.34;108190;1273;23200;-46
2023/05/01 07:04:12;;;;;;;5.90;3.80;;;;;;;12.50;65.52;100000.61;109451;1273;22361;-56
2023/05/01 07:06:43;;;;;;;3.80;1.80;;;;;;;12.63;66.50;99999.58;108568;1272;23140;-47
2023/05/01 07:09:16;;;;;;;2.50;1.70;;;;;;;12.78;66.76;100000.41;108905;1275;22452;-47
2023/05/01 07:11:43;;;;;;;3.10;1.60;;;;;;;12.93;66.36;99999.33;108952;1276;22834;-46
2023/05/01 07:18:12;;;;;;;3.00;1.50;;;;;;;13.23;62.55;100003.45;109538;1273;22211;-56
2023/05/01 07:21:17;;;;;;;4.10;1.80;;;;;;;13.35;62.16;100009.24;109220;1264;22537;-57
2023/05/01 07:24:04;;;;;;;3.30;1.40;;;;;;;13.42;59.59;100009.13;109277;1279;23356;-56
2023/05/01 07:26:32;;;;;;;3.90;1.90;;;;;;;13.49;59.20;100016.36;109240;1276;22260;-47
2023/05/01 07:28:59;;;;;;;2.10;1.50;;;;;;;13.50;58.62;100016.17;109596;1275;22850;-46
2023/05/01 07:31:26;;;;;;;3.30;1.40;;;;;;;13.51;59.41;100013.19;109508;1261;22722;-55
2023/05/01 07:33:57;;;;;;;4.10;2.00;;;;;;;13.56;59.08;100015.91;108400;1275;22308;-47
2023/05/01 07:36:28;;;;;;;5.20;2.40;;;;;;;13.60;59.04;100014.96;109298;1273;22478;-57
2023/05/01 07:38:58;;;;;;;3.90;1.70;;;;;;;13.68;58.97;100015.71;109263;1279;23070;-47
2023/05/01 07:41:25;;;;;;;5.60;1.90;;;;;;;13.74;57.74;100021.03;109607;1275;23015;-46
2023/05/01 07:43:52;;;;;;;4.20;1.60;;;;;;;13.80;55.95;100021.30;109714;1279;22992;-46
2023/05/01 07:46:20;;;;;;;5.90;1.60;;;;;;;13.79;52.12;100027.27;109765;1279;22353;-45
2023/05/01 07:48:47;;;;;;;3.20;1.90;;;;;;;13.72;51.13;100025.09;109286;1279;23139;-57
2023/05/01 07:51:14;;;;;;;4.20;2.30;;;;;;;13.65;51.14;100025.94;109499;1272;22597;-45
2023/05/01 07:53:41;;;;;;;2.80;1.70;;;;;;;13.63;51.18;100025.44;109587;1273;22409;-45
2023/05/01 07:56:10;;;;;;;6.10;1.90;;;;;;;13.71;52.28;100023.18;108913;1276;25397;-54
2023/05/01 07:58:37;;;;;;;4.10;2.00;;;;;;;13.85;50.94;100025.40;109700;1276;22391;-55
2023/05/01 08:01:09;;;;;;;4.10;1.70;;;;;;;13.97;50.19;100028.86;109176;1275;23194;-55
2023/05/01 08:03:37;;;;;;;6.60;2.10;;;;;;;14.02;48.83;100026.66;109319;1279;22683;-55
2023/05/01 08:06:06;;;;;;;12.50;2.30;;;;;;;14.06;50.46;100028.35;108887;1275;22558;-60
2023/05/01 08:08:34;;;;;;;7.10;2.30;;;;;;;14.12;50.81;100029.83;109271;1278;22871;-56
2023/05/01 08:11:07;;;;;;;6.00;2.20;;;;;;;14.24;51.74;100025.73;109236;1272;22547;-56
2023/05/01 08:13:43;;;;;;;3.70;1.60;;;;;;;14.35;49.77;100035.87;109260;1277;22333;-46
2023/05/01 08:16:10;;;;;;;5.10;2.00;;;;;;;14.37;48.50;100039.86;108481;1275;22425;-49
2023/05/01 08:18:38;;;;;;;5.80;1.80;;;;;;;14.34;48.92;100036.25;108373;1273;22300;-46
2023/05/01 08:21:05;;;;;;;6.40;1.80;;;;;;;14.39;50.36;100034.92;109066;1273;22321;-47
2023/05/01 08:23:32;;;;;;;11.30;2.10;;;;;;;14.50;49.72;100033.68;108559;1273;22334;-47
2023/05/01 08:26:08;;;;;;;5.00;1.80;;;;;;;14.61;50.26;100029.59;108872;1276;23839;-56
2023/05/01 08:28:44;;;;;;;3.60;1.90;;;;;;;14.76;50.21;100033.83;109280;1279;22633;-48
2023/05/01 08:31:18;;;;;;;4.00;1.80;;;;;;;14.89;49.20;100027.58;109413;1279;22648;-46
2023/05/01 08:33:47;;;;;;;3.60;1.90;;;;;;;14.99;49.55;100028.95;109545;1279;22550;-47
2023/05/01 08:36:18;;;;;;;6.80;2.40;;;;;;;15.13;50.61;100020.73;108708;1277;22774;-46
2023/05/01 08:38:51;;;;;;;6.20;2.00;;;;;;;15.27;49.07;100026.02;108637;1277;22522;-56
2023/05/01 08:41:20;;;;;;;7.50;2.40;;;;;;;15.34;48.54;100023.75;109065;1275;22547;-55
2023/05/01 08:43:47;;;;;;;4.10;2.20;;;;;;;15.39;49.43;100025.21;109044;1273;22280;-48
2023/05/01 08:46:34;;;;;;;3.00;1.70;;;;;;;15.49;47.82;100022.52;108985;1257;22473;-46
2023/05/01 08:49:04;;;;;;;4.40;2.10;;;;;;;15.62;48.40;100013.07;108897;1273;24151;-56
2023/05/01 08:51:38;;;;;;;4.10;2.50;;;;;;;15.70;47.44;100017.97;108946;1277;22882;-55
2023/05/01 08:54:09;;;;;;;3.50;2.30;;;;;;;15.71;45.87;100021.13;108827;1273;22413;-57
2023/05/01 08:56:45;;;;;;;5.50;2.70;;;;;;;15.71;47.61;100016.73;108776;1280;22506;-55
2023/05/01 08:59:30;;;;;;;9.70;3.10;;;;;;;15.79;47.58;100021.27;108576;1275;22871;-46
2023/05/01 09:02:22;;;;;;;7.00;2.20;;;;;;;15.78;46.60;100027.11;108186;1275;23123;-45
2023/05/01 09:04:51;;;;;;;5.50;2.60;;;;;;;15.66;47.11;100026.70;108802;1280;22909;-56
2023/05/01 09:07:18;;;;;;;4.80;3.20;;;;;;;15.62;47.31;100031.89;109152;1282;22341;-56
2023/05/01 09:09:46;;;;;;;7.20;2.80;;;;;;;15.60;47.70;100034.56;109049;1276;22890;-57
2023/05/01 09:12:34;;;;;;;6.30;3.80;;;;;;;15.57;48.78;100034.27;108164;1278;22259;-46
2023/05/01 09:15:02;;;;;;;4.90;3.10;;;;;;;15.51;48.67;100036.70;109141;1262;22924;-46
2023/05/01 09:17:40;;;;;;;7.20;2.90;;;;;;;15.39;49.74;100038.39;108262;1273;22561;-57
2023/05/01 09:20:18;;;;;;;4.30;2.50;;;;;;;15.36;48.75;100042.33;108524;1273;24262;-47
2023/05/01 09:22:52;;;;;;;8.40;2.60;;;;;;;15.38;49.02;100041.42;107445;1273;22430;-55
2023/05/01 09:25:25;;;;;;;4.80;3.00;;;;;;;15.45;49.14;100043.17;108314;1273;22770;-56
2023/05/01 09:29:23;;;;;;;5.50;3.10;;;;;;;15.56;49.88;100042.73;108810;1277;22407;-47
2023/05/01 09:32:26;;;;;;;7.60;2.70;;;;;;;15.72;50.40;100045.19;108829;1280;23307;-48
2023/05/01 09:35:07;;;;;;;9.80;3.50;;;;;;;15.83;49.25;100050.19;109317;1277;23359;-56
2023/05/01 09:37:38;;;;;;;7.10;3.50;;;;;;;15.82;50.24;100041.95;109206;1279;22575;-47
2023/05/01 09:40:11;;;;;;;7.90;3.90;;;;;;;15.78;50.61;100047.33;108054;1277;25523;-56
2023/05/01 09:42:49;;;;;;;7.70;4.00;;;;;;;15.76;50.71;100052.64;108427;1272;25521;-56
2023/05/01 09:45:17;;;;;;;6.30;3.40;;;;;;;15.72;50.90;100046.95;109275;1276;23559;-47
2023/05/01 09:47:45;;;;;;;7.40;3.80;;;;;;;15.74;52.83;100041.10;109288;1279;22463;-60
2023/05/01 09:50:34;;;;;;;7.90;3.40;;;;;;;15.84;52.42;100045.77;108442;1276;23042;-48
2023/05/01 09:53:07;;;;;;;7.00;4.00;;;;;;;15.85;51.94;100051.01;109198;1276;22452;-46
2023/05/01 09:55:35;;;;;;;6.00;3.60;;;;;;;15.77;52.85;100056.14;108519;1274;22383;-48
2023/05/01 09:58:25;;;;;;;12.20;3.60;;;;;;;15.68;53.36;100059.52;108824;1273;22569;-57
2023/05/01 10:00:55;;;;;;;7.80;3.40;;;;;;;15.65;53.75;100065.75;108719;1274;22386;-52
2023/05/01 10:03:26;;;;;;;7.10;3.30;;;;;;;15.58;53.16;100067.81;108625;1276;22806;-58
2023/05/01 10:06:08;;;;;;;8.10;3.30;;;;;;;15.52;52.34;100069.20;109398;1280;23443;-48
2023/05/01 10:08:54;;;;;;;6.10;3.30;;;;;;;15.52;53.17;100073.60;109243;1274;23284;-59
2023/05/01 10:11:22;;;;;;;7.80;3.50;;;;;;;15.65;53.02;100075.22;109297;1278;22304;-58
2023/05/01 10:14:06;;;;;;;6.80;3.40;;;;;;;15.71;52.60;100080.20;108608;1275;22340;-55
2023/05/01 10:16:37;;;;;;;4.80;3.40;;;;;;;15.75;52.56;100075.55;109231;1280;22821;-49
2023/05/01 10:19:04;;;;;;;4.40;3.30;;;;;;;15.93;52.17;100076.14;108974;1273;23627;-48
2023/05/01 10:21:33;;;;;;;6.90;3.70;;;;;;;16.13;50.81;100082.30;108810;1280;22228;-49
2023/05/01 10:24:04;;;;;;;5.40;3.50;;;;;;;16.28;50.67;100087.20;109562;1281;22303;-48
2023/05/01 10:26:35;;;;;;;6.30;3.10;;;;;;;16.28;50.12;100091.57;109591;1273;22497;-58
2023/05/01 10:29:02;;;;;;;6.90;3.50;;;;;;;16.42;50.18;100096.49;109606;1280;22710;-58
2023/05/01 10:31:31;;;;;;;7.70;3.50;;;;;;;16.55;49.80;100104.05;109635;1280;22164;-58
2023/05/01 10:34:02;;;;;;;7.20;4.10;;;;;;;16.60;50.10;100108.33;109523;1281;23055;-58
2023/05/01 10:36:46;;;;;;;4.10;3.00;;;;;;;16.52;51.18;100106.60;109534;1280;23453;-60
2023/05/01 10:39:30;;;;;;;6.60;3.00;;;;;;;16.36;49.97;100111.09;109499;1279;22288;-60
2023/05/01 10:41:57;;;;;;;4.30;2.90;;;;;;;16.22;49.80;100108.30;109487;1277;22812;-58
2023/05/01 10:44:25;;;;;;;6.20;3.00;;;;;;;16.28;49.36;100109.02;109446;1273;22192;-59
2023/05/01 10:46:53;;;;;;;6.20;2.80;;;;;;;16.41;49.76;100107.80;109589;1280;22898;-59
2023/05/01 10:49:20;;;;;;;3.50;3.00;;;;;;;16.39;49.11;100115.05;109650;1275;22156;-58
2023/05/01 10:52:05;;;;;;;6.90;2.40;;;;;;;16.52;49.98;100115.59;109630;1276;23002;-59
2023/05/01 10:54:32;;;;;;;5.80;2.80;;;;;;;16.88;49.55;100118.66;109641;1280;23011;-59
2023/05/01 10:57:00;;;;;;;10.20;2.70;;;;;;;16.98;47.78;100123.10;109063;1276;22948;-58
2023/05/01 11:00:03;;;;;;;4.00;2.30;;;;;;;17.01;48.00;100122.33;109533;1280;22524;-58
2023/05/01 11:02:30;;;;;;;4.90;2.50;;;;;;;17.38;48.49;100120.00;109449;1276;22270;-59
2023/05/01 11:04:57;;;;;;;5.70;2.80;;;;;;;17.49;48.07;100127.40;109767;1277;22257;-59
2023/05/01 11:07:25;;;;;;;3.40;2.60;;;;;;;17.52;47.27;100127.13;109871;1275;22379;-57
2023/05/01 11:09:54;;;;;;;6.60;3.20;;;;;;;17.60;46.88;100130.26;109881;1280;22411;-58
2023/05/01 11:12:52;;;;;;;3.60;2.40;;;;;;;17.67;45.73;100136.03;109874;1280;22197;-58
2023/05/01 11:15:30;;;;;;;3.50;2.50;;;;;;;17.55;45.68;100129.51;109889;1276;22186;-59
2023/05/01 11:17:58;;;;;;;8.40;3.00;;;;;;;17.30;46.72;100130.27;109864;1280;22598;-58
2023/05/01 11:20:25;;;;;;;4.30;2.60;;;;;;;17.17;45.99;100132.79;109097;1280;22179;-58
2023/05/01 11:22:53;;;;;;;6.70;2.50;;;;;;;17.21;46.01;100131.98;109859;1277;22896;-59
2023/05/01 11:25:26;;;;;;;5.50;2.40;;;;;;;17.37;46.79;100128.48;109833;1276;22137;-59
2023/05/01 11:27:53;;;;;;;;;;;;;;;17.47;47.21;100128.01;109900;1280;22461;-57
2023/05/01 11:30:21;;;;;;;4.80;2.20;;;;;;;17.38;46.10;100134.61;109124;1280;22534;-62
2023/05/01 11:32:48;;;;;;;6.60;2.00;;;;;;;17.17;44.87;100134.54;108114;1280;22559;-58
2023/05/01 11:35:25;;;;;;;5.30;2.20;;;;;;;17.01;44.96;100136.41;108358;1280;22316;-58
2023/05/01 11:37:54;;;;;;;3.90;1.80;;;;;;;16.91;44.42;100134.98;109929;1275;23216;-59
2023/05/01 11:40:23;;;;;;;9.20;1.80;;;;;;;16.91;43.38;100130.71;109890;1280;22522;-58
2023/05/01 11:42:50;;;;;;;2.90;1.80;;;;;;;17.04;42.70;100123.64;109882;1280;22426;-59
2023/05/01 11:45:18;;;;;;;3.70;2.50;;;;;;;17.22;41.64;100127.52;109709;1280;22453;-59
2023/05/01 11:47:45;;;;;;;5.10;2.50;;;;;;;17.27;42.24;100124.91;109862;1280;23107;-59
2023/05/01 11:50:12;;;;;;;4.90;2.20;;;;;;;17.20;42.86;100126.71;109887;1280;22200;-58
2023/05/01 11:52:48;;;;;;;3.20;1.80;;;;;;;17.02;42.64;100134.81;109271;1280;22186;-59
2023/05/01 11:55:15;;;;;;;3.90;1.90;;;;;;;16.68;40.38;100145.61;107526;1280;22543;-59
2023/05/01 11:57:46;;;;;;;3.10;1.90;;;;;;;16.41;40.08;100141.91;107794;1281;23078;-48
2023/05/01 12:00:28;;;;;;;4.60;1.60;;;;;;;16.40;41.98;100141.61;109852;1280;22276;-48
2023/05/01 12:03:01;;;;;;;6.40;2.00;;;;;;;16.62;41.45;100136.10;109906;1280;22277;-51
2023/05/01 12:05:30;;;;;;;2.50;1.90;;;;;;;16.77;40.89;100128.50;109838;1275;22203;-49
2023/05/01 12:08:13;;;;;;;5.50;2.00;;;;;;;16.70;43.37;100133.23;109854;1280;22315;-50
2023/05/01 12:10:42;;;;;;;9.20;2.60;;;;;;;16.65;44.95;100133.56;109878;1280;22414;-49
2023/05/01 12:13:10;;;;;;;4.30;2.10;;;;;;;16.69;44.63;100130.80;109814;1281;23466;-50
2023/05/01 12:15:39;;;;;;;6.70;2.20;;;;;;;16.78;44.48;100129.16;109886;1280;22886;-50
2023/05/01 12:18:06;;;;;;;3.90;1.80;;;;;;;16.94;40.96;100137.85;109741;1280;22318;-50
2023/05/01 12:20:41;;;;;;;3.10;1.70;;;;;;;17.06;40.37;100135.76;109706;1280;22316;-49
2023/05/01 12:23:13;;;;;;;1.80;1.30;;;;;;;17.14;39.95;100133.77;109901;1276;22284;-49
2023/05/01 12:25:40;;;;;;;5.80;1.80;;;;;;;17.28;39.51;100136.33;109795;1280;22909;-58
2023/05/01 12:28:18;;;;;;;3.30;1.40;;;;;;;17.42;39.74;100134.86;109899;1280;23060;-50
2023/05/01 12:30:46;;;;;;;7.10;2.40;;;;;;;17.44;39.83;100138.33;108836;1280;24457;-49
2023/05/01 12:33:18;;;;;;;8.40;3.20;;;;;;;17.24;40.59;100139.80;109118;1280;22328;-49
2023/05/01 12:35:46;;;;;;;4.30;1.90;;;;;;;16.99;41.16;100144.23;108063;1280;22658;-60
2023/05/01 12:38:18;;;;;;;2.40;1.60;;;;;;;16.79;41.52;100149.91;107040;1280;24273;-50
2023/05/01 12:40:56;;;;;;;5.20;2.70;;;;;;;16.62;41.30;100155.27;106747;1280;22505;-49
2023/05/01 12:43:33;;;;;;;2.60;1.70;;;;;;;16.64;41.15;100155.58;107161;1280;22527;-59
2023/05/01 12:46:01;;;;;;;2.00;1.50;;;;;;;16.80;40.30;100153.42;107841;1280;22536;-47
2023/05/01 12:48:28;;;;;;;2.20;1.70;;;;;;;17.00;39.52;100156.71;108657;1279;23166;-58
2023/05/01 12:50:56;;;;;;;2.60;1.40;;;;;;;17.31;37.66;100158.46;107079;1280;24891;-49
2023/05/01 12:53:24;;;;;;;3.20;1.50;;;;;;;17.43;37.19;100160.89;109632;1277;22284;-50
2023/05/01 12:55:55;;;;;;;1.40;1.20;;;;;;;17.44;37.21;100165.47;109961;1280;22263;-50
2023/05/01 12:58:22;;;;;;;1.70;1.60;;;;;;;17.53;36.20;100159.17;109103;1280;25408;-50
2023/05/01 13:00:54;;;;;;;3.00;1.50;;;;;;;17.76;36.82;100162.05;107363;1281;23128;-49
2023/05/01 13:03:25;;;;;;;4.90;1.40;;;;;;;17.99;36.28;100161.66;109444;1280;22328;-59
2023/05/01 13:05:59;;;;;;;7.80;1.70;;;;;;;18.04;36.53;100163.08;109215;1277;22204;-57
2023/05/01 13:08:35;;;;;;;2.00;1.60;;;;;;;18.04;35.97;100165.37;109912;1280;22246;-49
2023/05/01 13:11:15;;;;;;;4.10;1.60;;;;;;;17.93;36.01;100173.67;109860;1275;22289;-49
2023/05/01 13:13:43;;;;;;;3.40;1.40;;;;;;;18.12;36.27;100168.48;109457;1280;23149;-49
2023/05/01 13:16:11;;;;;;;2.00;1.30;;;;;;;18.59;34.69;100170.78;109798;1280;22313;-50
2023/05/01 13:18:51;;;;;;;3.10;1.20;;;;;;;18.97;33.59;100165.20;109080;1280;24266;-60
2023/05/01 13:21:20;;;;;;;4.80;1.50;;;;;;;19.19;33.11;100174.61;106729;1280;22559;-48
2023/05/01 13:23:52;;;;;;;4.00;2.20;;;;;;;18.86;31.35;100182.19;108629;1280;22236;-59
2023/05/01 13:26:24;;;;;;;4.10;1.40;;;;;;;18.47;32.26;100185.14;109729;1280;22536;-58
2023/05/01 13:28:52;;;;;;;4.80;1.40;;;;;;;18.32;32.94;100184.90;109931;1280;22386;-59
2023/05/01 13:31:19;;;;;;;4.50;1.70;;;;;;;18.27;32.71;100185.62;109878;1280;23205;-49
2023/05/01 13:33:47;;;;;;;4.00;1.40;;;;;;;18.34;32.94;100183.27;109947;1280;22264;-50
2023/05/01 13:36:14;;;;;;;3.90;1.90;;;;;;;18.54;32.49;100190.52;108174;1280;22524;-51
2023/05/01 13:38:52;;;;;;;2.50;1.40;;;;;;;18.73;33.27;100189.03;109630;1280;22336;-59
2023/05/01 13:41:21;;;;;;;2.10;1.50;;;;;;;18.59;32.81;100189.65;109880;1280;22318;-49
2023/05/01 13:43:48;;;;;;;2.10;1.20;;;;;;;18.30;32.23;100196.64;109956;1280;22282;-49
2023/05/01 13:46:16;;;;;;;1.80;1.00;;;;;;;18.30;31.56;100201.08;109452;1281;22256;-49
2023/05/01 13:48:43;;;;;;;5.20;1.30;;;;;;;18.57;31.52;100199.09;109870;1280;22226;-50
2023/05/01 13:51:10;;;;;;;3.40;1.30;;;;;;;18.90;31.08;100197.77;109895;1280;22896;-49
2023/05/01 13:53:41;;;;;;;2.30;1.20;;;;;;;19.15;30.55;100197.92;109942;1281;22423;-49
2023/05/01 13:56:08;;;;;;;7.00;1.10;;;;;;;19.26;30.38;100202.30;109871;1280;23036;-50
2023/05/01 13:58:35;;;;;;;3.40;1.30;;;;;;;19.20;30.40;100206.44;109935;1280;22305;-60
2023/05/01 14:01:05;;;;;;;2.90;1.70;;;;;;;19.16;30.31;100208.70;108853;1280;22540;-60
2023/05/01 14:03:39;;;;;;;3.80;1.10;;;;;;;19.01;30.45;100205.16;107565;1280;22235;-59
2023/05/01 14:06:13;;;;;;;2.70;1.50;;;;;;;18.93;30.84;100207.05;107168;1280;22532;-48
2023/05/01 14:08:41;;;;;;;4.90;1.30;;;;;;;19.06;30.10;100211.50;106883;1280;22540;-48
2023/05/01 14:11:10;;;;;;;4.40;1.30;;;;;;;19.05;28.80;100221.80;107584;1281;24234;-50
2023/05/01 14:13:44;;;;;;;3.10;1.10;;;;;;;18.75;29.35;100219.86;107100;1280;22644;-59
2023/05/01 14:16:25;;;;;;;2.40;1.20;;;;;;;18.46;29.13;100222.21;109686;1280;22349;-48
2023/05/01 14:18:54;;;;;;;2.60;1.30;;;;;;;18.26;30.33;100226.08;108134;1280;25422;-50
2023/05/01 14:21:22;;;;;;;2.40;1.20;;;;;;;18.12;31.14;100223.20;107204;1280;24338;-48
2023/05/01 14:23:53;;;;;;;3.60;1.60;;;;;;;18.03;30.79;100223.99;107605;1280;22576;-48
2023/05/01 14:26:20;;;;;;;3.30;1.20;;;;;;;18.02;30.70;100228.77;107636;1280;25420;-49
2023/05/01 14:28:48;;;;;;;2.30;1.40;;;;;;;18.02;30.35;100235.65;107982;1280;22309;-48
2023/05/01 14:31:28;;;;;;;6.70;1.20;;;;;;;17.98;30.29;100244.29;109567;1280;22338;-49
2023/05/01 14:33:58;;;;;;;1.40;1.20;;;;;;;17.95;29.04;100245.42;108144;1279;22283;-59
2023/05/01 14:36:27;;;;;;;2.40;1.30;;;;;;;17.99;29.53;100247.78;107973;1280;22561;-60
2023/05/01 14:38:58;;;;;;;5.90;1.30;;;;;;;17.95;29.95;100250.18;106987;1280;25446;-50
2023/05/01 14:41:25;;;;;;;2.20;1.60;;;;;;;17.85;30.52;100251.04;106870;1281;23262;-49
2023/05/01 14:43:52;;;;;;;2.70;1.40;;;;;;;17.80;30.46;100255.05;108565;1267;22537;-50
2023/05/01 14:46:27;;;;;;;2.80;1.50;;;;;;;17.79;30.47;100255.60;109175;1280;22972;-49
2023/05/01 14:48:54;;;;;;;7.90;1.50;;;;;;;17.91;30.60;100253.86;107288;1280;22544;-48
2023/05/01 14:51:21;;;;;;;3.30;1.70;;;;;;;18.14;30.76;100257.38;108257;1280;22301;-48
2023/05/01 14:53:48;;;;;;;3.20;1.40;;;;;;;18.31;30.12;100265.11;107597;1280;22591;-51
2023/05/01 14:56:15;;;;;;;4.20;1.30;;;;;;;18.48;29.39;100271.46;107172;1280;22532;-50
2023/05/01 14:58:42;;;;;;;6.80;2.00;;;;;;;18.70;29.22;100263.29;107053;1280;25329;-48
2023/05/01 15:01:09;;;;;;;2.80;1.70;;;;;;;19.08;29.09;100270.13;109287;1280;22920;-49
2023/05/01 15:03:40;;;;;;;4.10;1.30;;;;;;;19.38;28.79;100273.49;109882;1280;23118;-52
2023/05/01 15:06:07;;;;;;;8.20;2.50;;;;;;;19.68;28.81;100279.63;109945;1280;22317;-49
2023/05/01 15:08:35;;;;;;;2.70;1.30;;;;;;;19.88;28.48;100281.89;108087;1280;22539;-50
2023/05/01 15:11:02;;;;;;;2.90;1.20;;;;;;;19.82;28.52;100279.45;108075;1280;24276;-59
2023/05/01 15:13:30;;;;;;;2.90;1.10;;;;;;;19.57;28.56;100284.11;108911;1280;22533;-51
2023/05/01 15:15:57;;;;;;;3.30;1.80;;;;;;;19.18;27.86;100290.08;107160;1280;22523;-51
2023/05/01 15:18:25;;;;;;;4.40;1.60;;;;;;;18.77;26.88;100290.48;108777;1280;22867;-49
2023/05/01 15:20:52;;;;;;;3.50;1.10;;;;;;;18.49;27.65;100297.36;107548;1280;22543;-50
2023/05/01 15:23:19;;;;;;;2.50;1.30;;;;;;;18.30;28.88;100299.05;107290;1280;22629;-50
